createdAt,value
2019-05-07T00:01:06.647Z,11.30
2019-05-07T00:03:35.702Z,11.30
2019-05-07T00:06:05.130Z,11.30
2019-05-07T00:08:34.255Z,11.30
2019-05-07T00:11:03.210Z,11.40
2019-05-07T00:13:33.366Z,11.30
2019-05-07T00:16:02.677Z,11.30
2019-05-07T00:18:32.364Z,11.40
2019-05-07T00:21:03.553Z,11.40
2019-05-07T00:23:32.711Z,11.40
2019-05-07T00:26:02.543Z,11.40
2019-05-07T00:28:32.466Z,11.40
2019-05-07T00:31:02.852Z,11.40
2019-05-07T00:33:33.237Z,11.40
2019-05-07T00:36:32.401Z,11.30
2019-05-07T00:39:12.795Z,11.40
2019-05-07T00:41:52.247Z,11.30
2019-05-07T00:44:22.143Z,11.30
2019-05-07T00:46:52.526Z,11.40
2019-05-07T00:49:23.553Z,11.40
2019-05-07T00:51:52.611Z,11.40
2019-05-07T00:54:23.050Z,11.40
2019-05-07T00:56:52.248Z,11.40
2019-05-07T00:59:22.577Z,11.40
2019-05-07T01:01:52.836Z,11.40
2019-05-07T01:04:22.929Z,11.40
2019-05-07T01:06:53.552Z,11.30
2019-05-07T01:09:23.330Z,11.30
2019-05-07T01:11:52.513Z,11.30
2019-05-07T01:14:22.863Z,11.30
2019-05-07T01:16:52.862Z,11.20
2019-05-07T01:19:22.108Z,11.20
2019-05-07T01:21:52.504Z,11.20
2019-05-07T01:24:23.357Z,11.20
2019-05-07T01:26:53.002Z,11.20
2019-05-07T01:29:22.658Z,11.10
2019-05-07T01:32:08.530Z,11.10
2019-05-07T01:34:52.596Z,11.20
2019-05-07T01:37:23.059Z,11.20
2019-05-07T01:39:52.953Z,11.20
2019-05-07T01:42:22.317Z,11.20
2019-05-07T01:44:52.832Z,11.20
2019-05-07T01:47:23.791Z,11.20
2019-05-07T01:49:55.156Z,11.30
2019-05-07T01:52:23.578Z,11.30
2019-05-07T01:54:52.595Z,11.30
2019-05-07T01:57:23.110Z,11.30
2019-05-07T01:59:52.898Z,11.30
2019-05-07T02:02:28.312Z,11.30
2019-05-07T02:05:16.765Z,11.30
2019-05-07T02:07:52.141Z,11.30
2019-05-07T02:10:42.776Z,11.30
2019-05-07T02:13:12.593Z,11.20
2019-05-07T02:15:42.809Z,11.20
2019-05-07T02:18:12.613Z,11.20
2019-05-07T02:20:42.620Z,11.20
2019-05-07T02:23:12.788Z,11.20
2019-05-07T02:25:42.265Z,11.20
2019-05-07T02:28:12.826Z,11.20
2019-05-07T02:30:44.524Z,11.20
2019-05-07T02:33:13.744Z,11.20
2019-05-07T02:35:43.903Z,11.20
2019-05-07T02:38:18.737Z,11.10
2019-05-07T02:40:53.507Z,11.20
2019-05-07T02:43:23.003Z,11.20
2019-05-07T02:46:17.337Z,11.20
2019-05-07T02:48:36.900Z,11.20
2019-05-07T02:51:13.190Z,11.20
2019-05-07T02:54:04.500Z,11.20
2019-05-07T02:56:33.725Z,11.20
2019-05-07T02:59:04.219Z,11.20
2019-05-07T03:01:33.958Z,11.20
2019-05-07T03:04:03.755Z,11.20
2019-05-07T03:06:33.875Z,11.20
2019-05-07T03:09:03.518Z,11.20
2019-05-07T03:11:33.888Z,11.20
2019-05-07T03:14:03.815Z,11.20
2019-05-07T03:16:43.126Z,11.20
2019-05-07T03:19:04.278Z,11.20
2019-05-07T03:21:53.870Z,11.20
2019-05-07T03:24:28.520Z,11.20
2019-05-07T03:26:57.553Z,11.20
2019-05-07T03:29:26.497Z,11.20
2019-05-07T03:31:58.967Z,11.20
2019-05-07T03:34:50.335Z,11.20
2019-05-07T03:37:23.383Z,11.20
2019-05-07T03:39:53.716Z,11.20
2019-05-07T03:42:23.694Z,11.20
2019-05-07T03:45:03.740Z,11.20
2019-05-07T03:47:37.101Z,11.20
2019-05-07T03:50:09.718Z,11.20
2019-05-07T03:52:39.114Z,11.20
2019-05-07T03:55:08.899Z,11.20
2019-05-07T03:57:37.854Z,11.20
2019-05-07T04:00:07.700Z,11.20
2019-05-07T04:02:37.042Z,11.20
2019-05-07T04:05:06.332Z,11.20
2019-05-07T04:07:35.172Z,11.20
2019-05-07T04:10:04.999Z,11.30
2019-05-07T04:12:34.414Z,11.30
2019-05-07T04:15:10.126Z,11.30
2019-05-07T04:17:39.323Z,11.30
2019-05-07T04:20:08.542Z,11.30
2019-05-07T04:22:37.617Z,11.40
2019-05-07T04:25:34.333Z,11.40
2019-05-07T04:28:08.486Z,11.40
2019-05-07T04:30:38.003Z,11.40
2019-05-07T04:33:09.079Z,11.40
2019-05-07T04:35:49.851Z,11.40
2019-05-07T04:38:18.890Z,11.40
2019-05-07T04:40:47.758Z,11.40
2019-05-07T04:43:16.726Z,11.50
2019-05-07T04:45:45.750Z,11.50
2019-05-07T04:48:14.679Z,11.50
2019-05-07T04:50:47.721Z,11.60
2019-05-07T04:53:16.020Z,11.60
2019-05-07T04:55:45.085Z,11.50
2019-05-07T04:58:14.354Z,11.60
2019-05-07T05:00:43.597Z,11.60
2019-05-07T05:03:26.556Z,11.60
2019-05-07T05:05:55.745Z,11.70
2019-05-07T05:08:24.723Z,11.70
2019-05-07T05:10:54.148Z,11.80
2019-05-07T05:13:24.021Z,11.90
2019-05-07T05:15:53.619Z,11.90
2019-05-07T05:18:23.291Z,11.90
2019-05-07T05:21:12.095Z,12.00
2019-05-07T05:23:49.630Z,12.00
2019-05-07T05:26:18.724Z,12.00
2019-05-07T05:28:47.698Z,12.10
2019-05-07T05:31:16.630Z,12.10
2019-05-07T05:33:45.905Z,12.20
2019-05-07T05:36:14.962Z,12.20
2019-05-07T05:38:43.952Z,12.30
2019-05-07T05:41:13.506Z,12.30
2019-05-07T05:44:02.287Z,12.40
2019-05-07T05:46:32.179Z,12.40
2019-05-07T05:49:02.617Z,12.50
2019-05-07T05:52:02.905Z,12.60
2019-05-07T05:54:54.646Z,12.70
2019-05-07T05:57:46.075Z,12.70
2019-05-07T06:00:42.238Z,12.70
2019-05-07T06:03:42.906Z,12.70
2019-05-07T06:06:42.223Z,12.70
2019-05-07T06:09:34.377Z,12.80
2019-05-07T06:12:25.592Z,12.90
2019-05-07T06:15:02.063Z,13.10
2019-05-07T06:17:53.980Z,13.20
2019-05-07T06:20:42.893Z,13.40
2019-05-07T06:23:33.058Z,13.60
2019-05-07T06:26:05.107Z,13.80
2019-05-07T06:28:33.090Z,14.00
2019-05-07T06:31:02.295Z,14.10
2019-05-07T06:33:32.457Z,14.20
2019-05-07T06:36:02.850Z,14.40
2019-05-07T06:38:36.446Z,14.50
2019-05-07T06:41:23.302Z,14.70
2019-05-07T06:43:56.995Z,14.80
2019-05-07T06:46:26.362Z,15.00
2019-05-07T06:48:55.539Z,15.10
2019-05-07T06:51:24.925Z,15.00
2019-05-07T06:53:54.096Z,15.00
2019-05-07T06:56:23.222Z,15.10
2019-05-07T06:58:58.694Z,15.10
2019-05-07T07:01:46.724Z,15.20
2019-05-07T07:04:28.378Z,15.30
2019-05-07T07:07:26.120Z,15.50
2019-05-07T07:09:58.472Z,16.10
2019-05-07T07:12:28.911Z,16.60
2019-05-07T07:14:58.273Z,16.70
2019-05-07T07:17:27.389Z,16.70
2019-05-07T07:19:56.518Z,16.70
2019-05-07T07:22:25.750Z,16.90
2019-05-07T07:24:54.716Z,16.90
2019-05-07T07:27:23.712Z,17.00
2019-05-07T07:30:02.433Z,17.00
2019-05-07T07:32:37.620Z,17.00
2019-05-07T07:35:09.236Z,16.80
2019-05-07T07:37:42.815Z,16.70
2019-05-07T07:40:22.406Z,16.60
2019-05-07T07:42:52.105Z,16.50
2019-05-07T07:45:23.044Z,16.40
2019-05-07T07:47:53.070Z,16.30
2019-05-07T07:50:22.644Z,16.30
2019-05-07T07:52:52.998Z,16.20
2019-05-07T07:55:32.899Z,16.20
2019-05-07T07:58:25.525Z,16.20
2019-05-07T08:01:06.623Z,16.20
2019-05-07T08:03:37.628Z,16.30
2019-05-07T08:06:07.033Z,16.40
2019-05-07T08:08:36.090Z,16.60
2019-05-07T08:11:05.116Z,16.80
2019-05-07T08:13:34.826Z,16.90
2019-05-07T08:16:03.975Z,17.00
2019-05-07T08:18:45.072Z,17.00
2019-05-07T08:21:16.714Z,17.20
2019-05-07T08:23:48.500Z,17.30
2019-05-07T08:26:17.456Z,17.60
2019-05-07T08:28:49.688Z,17.70
2019-05-07T08:31:53.445Z,17.80
2019-05-07T08:34:27.353Z,17.80
2019-05-07T08:36:57.777Z,17.90
2019-05-07T08:39:29.745Z,18.20
2019-05-07T08:41:59.019Z,18.60
2019-05-07T08:44:34.445Z,18.70
2019-05-07T08:47:24.385Z,18.60
2019-05-07T08:50:04.936Z,18.30
2019-05-07T08:52:43.907Z,17.90
2019-05-07T08:55:13.051Z,17.80
2019-05-07T08:57:45.538Z,17.90
2019-05-07T09:00:15.440Z,17.80
2019-05-07T09:02:44.596Z,17.70
2019-05-07T09:05:14.790Z,17.60
2019-05-07T09:07:44.377Z,17.30
2019-05-07T09:10:13.508Z,17.40
2019-05-07T09:12:43.036Z,17.50
2019-05-07T09:15:12.556Z,17.40
2019-05-07T09:17:42.718Z,17.50
2019-05-07T09:20:12.631Z,17.70
2019-05-07T09:22:42.859Z,18.00
2019-05-07T09:25:13.023Z,18.10
2019-05-07T09:27:45.250Z,18.40
2019-05-07T09:30:47.171Z,18.40
2019-05-07T09:33:22.686Z,18.50
2019-05-07T09:35:53.601Z,18.40
2019-05-07T09:38:22.791Z,18.40
2019-05-07T09:40:52.472Z,18.50
2019-05-07T09:43:22.108Z,18.40
2019-05-07T09:45:52.354Z,18.30
2019-05-07T09:48:22.223Z,18.10
2019-05-07T09:50:53.082Z,17.90
2019-05-07T09:53:22.818Z,17.70
2019-05-07T09:55:52.157Z,17.50
2019-05-07T09:58:34.945Z,17.40
2019-05-07T10:00:52.237Z,17.40
2019-05-07T10:03:22.804Z,17.40
2019-05-07T10:05:54.685Z,17.40
2019-05-07T10:08:23.775Z,17.30
2019-05-07T10:10:53.284Z,17.20
2019-05-07T10:13:28.920Z,17.10
2019-05-07T10:15:57.941Z,17.10
2019-05-07T10:18:27.352Z,17.10
2019-05-07T10:20:56.427Z,17.10
2019-05-07T10:23:25.461Z,17.20
2019-05-07T10:25:55.291Z,17.20
2019-05-07T10:28:24.909Z,17.20
2019-05-07T10:30:54.920Z,17.30
2019-05-07T10:33:24.209Z,17.20
2019-05-07T10:35:53.417Z,17.20
2019-05-07T10:38:22.557Z,17.20
2019-05-07T10:40:51.911Z,17.20
2019-05-07T10:43:22.236Z,17.30
2019-05-07T10:46:13.449Z,17.40
2019-05-07T10:49:01.804Z,17.50
2019-05-07T10:51:32.155Z,17.50
2019-05-07T10:54:03.486Z,17.40
2019-05-07T10:56:32.823Z,17.40
2019-05-07T10:59:05.342Z,17.30
2019-05-07T11:01:42.415Z,17.30
2019-05-07T11:04:12.753Z,17.40
2019-05-07T11:06:41.935Z,17.50
2019-05-07T11:09:11.094Z,17.50
2019-05-07T11:11:42.237Z,17.50
2019-05-07T11:14:12.311Z,17.50
2019-05-07T11:16:48.404Z,17.40
2019-05-07T11:19:18.959Z,17.30
2019-05-07T11:21:48.227Z,17.20
2019-05-07T11:24:17.321Z,16.90
2019-05-07T11:26:46.336Z,16.70
2019-05-07T11:29:15.292Z,16.10
2019-05-07T11:31:45.000Z,15.60
2019-05-07T11:34:14.054Z,15.40
2019-05-07T11:36:43.068Z,15.40
2019-05-07T11:39:12.335Z,15.40
2019-05-07T11:41:59.152Z,15.30
2019-05-07T11:44:29.526Z,15.10
2019-05-07T11:47:15.750Z,15.00
2019-05-07T11:50:03.297Z,14.90
2019-05-07T11:52:36.293Z,14.90
2019-05-07T11:55:05.492Z,14.80
2019-05-07T11:57:34.527Z,14.80
2019-05-07T12:00:04.383Z,14.90
2019-05-07T12:02:33.371Z,15.00
2019-05-07T12:05:02.347Z,15.20
2019-05-07T12:07:32.757Z,15.30
2019-05-07T12:10:04.754Z,15.50
2019-05-07T12:12:32.695Z,15.80
2019-05-07T12:15:02.473Z,15.80
2019-05-07T12:17:31.734Z,15.90
2019-05-07T12:20:02.646Z,16.20
2019-05-07T12:22:47.281Z,16.90
2019-05-07T12:25:20.333Z,17.40
2019-05-07T12:27:51.128Z,17.60
2019-05-07T12:30:46.990Z,17.90
2019-05-07T12:33:42.773Z,17.90
2019-05-07T12:36:13.133Z,18.00
2019-05-07T12:38:42.223Z,17.90
2019-05-07T12:41:33.258Z,17.90
2019-05-07T12:44:03.504Z,18.00
2019-05-07T12:46:33.393Z,17.60
2019-05-07T12:49:03.831Z,17.50
2019-05-07T12:51:38.479Z,17.70
2019-05-07T12:54:36.496Z,17.80
2019-05-07T12:57:03.995Z,17.90
2019-05-07T12:59:33.038Z,18.20
2019-05-07T13:02:34.011Z,18.40
2019-05-07T13:04:48.556Z,18.50
2019-05-07T13:07:35.410Z,18.80
2019-05-07T13:10:08.236Z,19.00
2019-05-07T13:12:35.955Z,19.20
2019-05-07T13:15:20.459Z,19.20
2019-05-07T13:17:36.968Z,19.10
2019-05-07T13:20:06.756Z,19.00
2019-05-07T13:22:35.780Z,18.90
2019-05-07T13:25:05.138Z,18.80
2019-05-07T13:27:33.990Z,18.60
2019-05-07T13:30:06.231Z,18.50
2019-05-07T13:32:36.398Z,18.40
2019-05-07T13:35:06.410Z,18.30
2019-05-07T13:37:37.636Z,18.20
2019-05-07T13:40:22.483Z,18.10
2019-05-07T13:43:11.753Z,18.00
2019-05-07T13:45:49.129Z,18.20
2019-05-07T13:48:22.372Z,18.20
2019-05-07T13:50:51.715Z,18.30
2019-05-07T13:53:22.695Z,18.40
2019-05-07T13:55:51.411Z,18.20
2019-05-07T13:58:22.834Z,18.50
2019-05-07T14:01:02.039Z,18.50
2019-05-07T14:03:33.005Z,18.60
2019-05-07T14:06:04.550Z,18.60
2019-05-07T14:08:34.669Z,18.70
2019-05-07T14:11:03.825Z,18.60
2019-05-07T14:13:33.214Z,18.70
2019-05-07T14:16:07.199Z,18.70
2019-05-07T14:18:37.779Z,18.80
2019-05-07T14:21:06.953Z,19.00
2019-05-07T14:23:36.213Z,19.10
2019-05-07T14:26:06.123Z,19.00
2019-05-07T14:28:35.154Z,18.90
2019-05-07T14:31:04.329Z,18.80
2019-05-07T14:33:45.589Z,18.70
2019-05-07T14:36:17.538Z,18.80
2019-05-07T14:38:48.931Z,18.70
2019-05-07T14:41:18.353Z,18.80
2019-05-07T14:44:08.806Z,18.90
2019-05-07T14:46:45.574Z,18.90
2019-05-07T14:49:08.690Z,18.90
2019-05-07T14:51:38.182Z,18.80
2019-05-07T14:54:07.475Z,18.70
2019-05-07T14:56:36.745Z,18.50
2019-05-07T14:59:05.929Z,18.20
2019-05-07T15:01:35.196Z,18.10
2019-05-07T15:04:04.233Z,18.10
2019-05-07T15:06:33.364Z,18.10
2019-05-07T15:09:02.426Z,18.10
2019-05-07T15:11:32.025Z,18.10
2019-05-07T15:14:04.590Z,18.20
2019-05-07T15:16:33.718Z,18.30
2019-05-07T15:19:03.128Z,18.30
2019-05-07T15:21:32.550Z,18.50
2019-05-07T15:24:02.267Z,18.60
2019-05-07T15:26:32.668Z,18.70
2019-05-07T15:29:07.809Z,18.70
2019-05-07T15:32:03.351Z,18.50
2019-05-07T15:34:32.875Z,18.50
2019-05-07T15:37:02.082Z,18.40
2019-05-07T15:39:32.834Z,18.40
2019-05-07T15:42:02.219Z,18.40
2019-05-07T15:44:31.469Z,18.40
2019-05-07T15:47:03.360Z,18.50
2019-05-07T15:49:32.387Z,18.50
2019-05-07T15:52:03.940Z,18.30
2019-05-07T15:54:33.515Z,18.20
2019-05-07T15:57:05.042Z,18.10
2019-05-07T15:59:33.885Z,18.00
2019-05-07T16:02:22.608Z,18.00
2019-05-07T16:04:51.796Z,18.00
2019-05-07T16:07:22.477Z,18.00
2019-05-07T16:09:52.575Z,18.00
2019-05-07T16:12:22.642Z,17.90
2019-05-07T16:14:52.451Z,18.00
2019-05-07T16:17:44.384Z,18.10
2019-05-07T16:20:14.393Z,18.30
2019-05-07T16:22:47.052Z,18.60
2019-05-07T16:25:16.113Z,18.80
2019-05-07T16:27:45.137Z,18.80
2019-05-07T16:30:14.912Z,18.80
2019-05-07T16:32:43.916Z,18.60
2019-05-07T16:35:16.067Z,18.30
2019-05-07T16:37:45.444Z,18.20
2019-05-07T16:40:14.439Z,18.20
2019-05-07T16:42:43.471Z,18.20
2019-05-07T16:45:14.026Z,18.20
2019-05-07T16:47:43.047Z,18.20
2019-05-07T16:50:13.009Z,18.20
2019-05-07T16:52:42.241Z,18.20
2019-05-07T16:55:12.282Z,18.30
2019-05-07T16:57:59.088Z,18.30
2019-05-07T17:00:53.446Z,18.30
2019-05-07T17:03:26.691Z,18.30
2019-05-07T17:05:55.925Z,18.40
2019-05-07T17:08:31.741Z,18.30
2019-05-07T17:11:02.890Z,18.20
2019-05-07T17:13:31.907Z,18.00
2019-05-07T17:16:03.383Z,17.90
2019-05-07T17:18:32.878Z,17.80
2019-05-07T17:21:02.235Z,17.60
2019-05-07T17:23:43.358Z,17.50
2019-05-07T17:26:02.075Z,17.40
2019-05-07T17:28:31.964Z,17.30
2019-05-07T17:31:03.066Z,17.20
2019-05-07T17:33:32.122Z,17.20
2019-05-07T17:36:02.477Z,17.30
2019-05-07T17:38:32.346Z,17.20
2019-05-07T17:41:12.578Z,17.20
2019-05-07T17:43:32.608Z,17.20
2019-05-07T17:46:02.841Z,17.20
2019-05-07T17:48:32.885Z,17.20
2019-05-07T17:51:24.228Z,17.10
2019-05-07T17:53:59.725Z,16.90
2019-05-07T17:56:27.247Z,16.90
2019-05-07T17:58:56.593Z,16.70
2019-05-07T18:01:45.294Z,16.70
2019-05-07T18:04:14.344Z,16.60
2019-05-07T18:06:43.335Z,16.60
2019-05-07T18:09:12.386Z,16.50
2019-05-07T18:11:42.837Z,16.40
2019-05-07T18:14:11.990Z,16.30
2019-05-07T18:17:06.081Z,16.20
2019-05-07T18:19:35.108Z,16.20
2019-05-07T18:22:04.269Z,16.10
2019-05-07T18:24:33.366Z,16.10
2019-05-07T18:27:04.021Z,16.10
2019-05-07T18:29:33.286Z,16.10
2019-05-07T18:32:05.869Z,16.10
2019-05-07T18:34:36.307Z,16.00
2019-05-07T18:37:05.361Z,16.00
2019-05-07T18:39:34.612Z,15.90
2019-05-07T18:42:05.134Z,15.80
2019-05-07T18:44:55.734Z,15.70
2019-05-07T18:47:24.778Z,15.60
2019-05-07T18:49:54.404Z,15.50
2019-05-07T18:52:31.883Z,15.50
2019-05-07T18:55:04.356Z,15.40
2019-05-07T18:57:33.451Z,15.30
2019-05-07T19:00:05.199Z,15.20
2019-05-07T19:02:33.356Z,15.20
2019-05-07T19:05:02.867Z,15.20
2019-05-07T19:07:32.490Z,15.10
2019-05-07T19:10:02.687Z,15.10
2019-05-07T19:12:33.588Z,15.10
2019-05-07T19:15:02.982Z,15.10
2019-05-07T19:17:32.387Z,15.10
2019-05-07T19:20:03.371Z,15.20
2019-05-07T19:22:33.078Z,15.20
2019-05-07T19:25:03.023Z,15.10
2019-05-07T19:27:32.811Z,15.10
2019-05-07T19:30:01.999Z,15.10
2019-05-07T19:32:32.249Z,15.00
2019-05-07T19:35:01.365Z,15.00
2019-05-07T19:37:31.893Z,14.90
2019-05-07T19:40:02.033Z,14.90
2019-05-07T19:42:31.910Z,14.80
2019-05-07T19:45:02.688Z,14.80
2019-05-07T19:47:32.886Z,14.80
2019-05-07T19:50:02.164Z,14.80
2019-05-07T19:52:33.137Z,14.70
2019-05-07T19:55:04.730Z,14.70
2019-05-07T19:57:38.297Z,14.70
2019-05-07T20:00:12.124Z,14.70
2019-05-07T20:02:45.207Z,14.70
2019-05-07T20:05:14.265Z,14.60
2019-05-07T20:07:43.520Z,14.60
2019-05-07T20:10:14.199Z,14.50
2019-05-07T20:12:43.148Z,14.50
2019-05-07T20:15:12.270Z,14.50
2019-05-07T20:17:41.963Z,14.50
2019-05-07T20:20:12.511Z,14.50
2019-05-07T20:22:41.791Z,14.50
2019-05-07T20:25:16.444Z,14.50
2019-05-07T20:28:02.193Z,14.50
2019-05-07T20:30:32.842Z,14.40
2019-05-07T20:33:03.129Z,14.50
2019-05-07T20:35:32.641Z,14.40
2019-05-07T20:38:02.941Z,14.40
2019-05-07T20:40:32.528Z,14.40
2019-05-07T20:43:02.004Z,14.30
2019-05-07T20:45:32.127Z,14.30
2019-05-07T20:48:02.511Z,14.20
2019-05-07T20:50:33.248Z,14.10
2019-05-07T20:53:02.364Z,14.10
2019-05-07T20:55:45.553Z,14.00
2019-05-07T20:58:14.507Z,14.00
2019-05-07T21:00:52.616Z,14.00
2019-05-07T21:03:23.714Z,14.00
2019-05-07T21:05:53.576Z,14.00
2019-05-07T21:08:22.931Z,14.00
2019-05-07T21:10:53.653Z,13.90
2019-05-07T21:13:32.433Z,13.90
2019-05-07T21:15:53.551Z,13.90
2019-05-07T21:18:23.318Z,13.90
2019-05-07T21:20:53.118Z,13.90
2019-05-07T21:23:23.137Z,13.90
2019-05-07T21:25:53.042Z,13.90
2019-05-07T21:28:23.149Z,13.80
2019-05-07T21:30:54.597Z,13.80
2019-05-07T21:33:23.561Z,13.90
2019-05-07T21:35:52.565Z,13.80
2019-05-07T21:38:22.498Z,13.80
2019-05-07T21:40:51.635Z,13.80
2019-05-07T21:43:22.258Z,13.80
2019-05-07T21:45:53.030Z,13.80
2019-05-07T21:48:22.441Z,13.80
2019-05-07T21:50:52.007Z,13.80
2019-05-07T21:53:40.251Z,13.70
2019-05-07T21:56:34.406Z,13.70
2019-05-07T21:59:06.926Z,13.70
2019-05-07T22:01:46.937Z,13.70
2019-05-07T22:04:15.997Z,13.70
2019-05-07T22:06:45.517Z,13.70
2019-05-07T22:09:15.306Z,13.70
2019-05-07T22:11:44.206Z,13.70
2019-05-07T22:14:13.155Z,13.70
2019-05-07T22:16:42.410Z,13.70
2019-05-07T22:19:12.103Z,13.70
2019-05-07T22:21:43.180Z,13.70
2019-05-07T22:24:13.029Z,13.70
2019-05-07T22:26:42.659Z,13.70
2019-05-07T22:29:12.491Z,13.70
2019-05-07T22:31:57.829Z,13.70
2019-05-07T22:34:52.173Z,13.70
2019-05-07T22:37:21.953Z,13.60
2019-05-07T22:39:51.056Z,13.50
2019-05-07T22:42:22.240Z,13.60
2019-05-07T22:44:51.026Z,13.60
2019-05-07T22:47:22.461Z,13.60
2019-05-07T22:49:53.213Z,13.60
2019-05-07T22:52:22.433Z,13.60
2019-05-07T22:54:51.715Z,13.60
2019-05-07T22:57:42.540Z,13.50
2019-05-07T23:00:17.756Z,13.50
2019-05-07T23:02:46.593Z,13.50
2019-05-07T23:05:15.428Z,13.50
2019-05-07T23:07:44.270Z,13.50
2019-05-07T23:10:13.258Z,13.40
2019-05-07T23:12:42.085Z,13.40
2019-05-07T23:15:11.960Z,13.40
2019-05-07T23:17:41.023Z,13.40
2019-05-07T23:20:10.016Z,13.30
2019-05-07T23:22:38.839Z,13.30
2019-05-07T23:25:08.239Z,13.20
2019-05-07T23:27:37.211Z,13.20
2019-05-07T23:30:06.201Z,13.10
2019-05-07T23:32:35.457Z,13.10
2019-05-07T23:35:04.632Z,13.10
2019-05-07T23:37:33.630Z,13.00
2019-05-07T23:40:07.410Z,13.00
2019-05-07T23:42:37.550Z,13.00
2019-05-07T23:45:06.917Z,12.90
2019-05-07T23:47:35.872Z,12.90
2019-05-07T23:50:05.146Z,12.90
2019-05-07T23:52:34.053Z,13.00
2019-05-07T23:55:03.378Z,12.90
2019-05-07T23:57:34.710Z,12.90
